Informes METAR cercanos


LEVC - Manises, Valencia, ESPAÑA
Distance from station: NNE 72km
Actualización: 27/05/2018 21:30
Algunas nubes
Algunas nubes
 Viento del S
Viento: S 7 km/h
Temperatura: 19°C
Rocío: 17°C
Humedad: 88%
Barómetro: 1012 hPa
Clouds: Algunas nubes
Visibility: 10 km
Cloud details: Algunas nubes 1219 m
2018/05/27 19:30 LEVC 271930Z 19004KT 160V220 9999 FEW040 19/17 Q1012 NOSIG
LEAL - El Altet, Alicante, ESPAÑA
Distance from station: S 70km
Actualización: 27/05/2018 21:30
Algunas nubes
Algunas nubes
 Viento del E
Viento: E 7 km/h
Temperatura: 21°C
Rocío: 18°C
Humedad: 83%
Barómetro: 1013 hPa
Clouds: Algunas nubes
Visibility: 10 km
Cloud details: Algunas nubes 1372 m
2018/05/27 19:30 LEAL 271930Z 10004KT 080V150 9999 FEW045 21/18 Q1013 NOSIG
 
LELC - San Javier, Murcia, ESPAÑA
Distance from station: SSO 188km
Actualización: 27/05/2018 21:00
Despejado
Despejado
 Viento del SO
Viento: SO 13 km/h
Temperatura: 23°C
Rocío: 14°C
Humedad: 57%
Barómetro: 1012 hPa
Resumen: Despejado
Visibility: Mas de 10 km
2018/05/27 19:00 LELC 271900Z 23007KT 200V260 CAVOK 23/14 Q1012 NOSIG
LEAB - Los Llanos, Albacete, ESPAÑA
Distance from station: O 143km
Actualización: 27/05/2018 21:00
Muy nuboso
Muy nuboso
 Viento del O
Viento: O 11 km/h
Temperatura: 14°C
Rocío: 12°C
Humedad: 88%
Barómetro: 1015 hPa
Clouds: Muy nuboso
Visibility: 10 km
Cloud details: Muy nuboso 1494 m
2018/05/27 19:00 LEAB 271900Z 28006KT 9999 BKN049 14/12 Q1015 NOSIG